sensor_id;sensor_type;location;lat;lon;timestamp;P1;durP1;ratioP1;P2;durP2;ratioP2
70312;SDS011;57723;51.698;5.344;2023-04-25T00:01:53;2.53;;;1.00;;
70312;SDS011;57723;51.698;5.344;2023-04-25T00:04:18;1.50;;;0.80;;
70312;SDS011;57723;51.698;5.344;2023-04-25T00:06:44;2.03;;;1.10;;
70312;SDS011;57723;51.698;5.344;2023-04-25T00:09:09;1.50;;;0.70;;
70312;SDS011;57723;51.698;5.344;2023-04-25T00:11:36;1.58;;;0.80;;
70312;SDS011;57723;51.698;5.344;2023-04-25T00:14:02;1.95;;;0.80;;
70312;SDS011;57723;51.698;5.344;2023-04-25T00:16:28;1.75;;;0.80;;
70312;SDS011;57723;51.698;5.344;2023-04-25T00:18:54;1.98;;;0.80;;
70312;SDS011;57723;51.698;5.344;2023-04-25T00:21:20;1.10;;;0.60;;
70312;SDS011;57723;51.698;5.344;2023-04-25T00:23:45;1.50;;;0.60;;
70312;SDS011;57723;51.698;5.344;2023-04-25T00:26:11;1.48;;;0.85;;
70312;SDS011;57723;51.698;5.344;2023-04-25T00:28:36;1.33;;;0.70;;
70312;SDS011;57723;51.698;5.344;2023-04-25T00:31:02;1.52;;;0.80;;
70312;SDS011;57723;51.698;5.344;2023-04-25T00:33:27;2.77;;;0.70;;
70312;SDS011;57723;51.698;5.344;2023-04-25T00:35:53;1.47;;;0.70;;
70312;SDS011;57723;51.698;5.344;2023-04-25T00:38:18;1.73;;;0.70;;
70312;SDS011;57723;51.698;5.344;2023-04-25T00:40:44;1.60;;;0.77;;
70312;SDS011;57723;51.698;5.344;2023-04-25T00:43:09;2.33;;;0.90;;
70312;SDS011;57723;51.698;5.344;2023-04-25T00:45:34;2.87;;;0.80;;
70312;SDS011;57723;51.698;5.344;2023-04-25T00:48:02;1.58;;;0.70;;
70312;SDS011;57723;51.698;5.344;2023-04-25T00:50:28;1.70;;;0.70;;
70312;SDS011;57723;51.698;5.344;2023-04-25T00:52:53;3.13;;;0.80;;
70312;SDS011;57723;51.698;5.344;2023-04-25T00:55:19;1.48;;;0.70;;
70312;SDS011;57723;51.698;5.344;2023-04-25T00:57:44;1.42;;;0.70;;
70312;SDS011;57723;51.698;5.344;2023-04-25T01:00:10;1.30;;;0.70;;
70312;SDS011;57723;51.698;5.344;2023-04-25T01:02:36;1.17;;;0.70;;
70312;SDS011;57723;51.698;5.344;2023-04-25T01:05:02;0.77;;;0.50;;
70312;SDS011;57723;51.698;5.344;2023-04-25T01:07:27;1.77;;;0.60;;
70312;SDS011;57723;51.698;5.344;2023-04-25T01:09:53;1.60;;;0.70;;
70312;SDS011;57723;51.698;5.344;2023-04-25T01:12:18;1.80;;;0.90;;
70312;SDS011;57723;51.698;5.344;2023-04-25T01:14:44;1.45;;;0.60;;
70312;SDS011;57723;51.698;5.344;2023-04-25T01:17:09;1.53;;;0.70;;
70312;SDS011;57723;51.698;5.344;2023-04-25T01:19:34;1.37;;;0.70;;
70312;SDS011;57723;51.698;5.344;2023-04-25T01:22:00;1.63;;;0.80;;
70312;SDS011;57723;51.698;5.344;2023-04-25T01:24:26;2.47;;;0.70;;
70312;SDS011;57723;51.698;5.344;2023-04-25T01:26:51;1.47;;;0.80;;
70312;SDS011;57723;51.698;5.344;2023-04-25T01:29:17;0.93;;;0.60;;
70312;SDS011;57723;51.698;5.344;2023-04-25T01:31:43;1.17;;;0.60;;
70312;SDS011;57723;51.698;5.344;2023-04-25T01:34:09;1.63;;;0.77;;
70312;SDS011;57723;51.698;5.344;2023-04-25T01:36:34;1.60;;;0.70;;
70312;SDS011;57723;51.698;5.344;2023-04-25T01:39:00;1.60;;;0.60;;
70312;SDS011;57723;51.698;5.344;2023-04-25T01:41:25;1.60;;;0.60;;
70312;SDS011;57723;51.698;5.344;2023-04-25T01:43:51;1.37;;;0.60;;
70312;SDS011;57723;51.698;5.344;2023-04-25T01:46:16;2.23;;;0.70;;
70312;SDS011;57723;51.698;5.344;2023-04-25T01:48:42;1.20;;;0.52;;
70312;SDS011;57723;51.698;5.344;2023-04-25T01:51:07;1.60;;;0.70;;
70312;SDS011;57723;51.698;5.344;2023-04-25T01:53:32;1.27;;;0.60;;
70312;SDS011;57723;51.698;5.344;2023-04-25T01:55:58;0.77;;;0.55;;
70312;SDS011;57723;51.698;5.344;2023-04-25T01:58:24;2.55;;;0.70;;
70312;SDS011;57723;51.698;5.344;2023-04-25T02:00:49;1.53;;;0.70;;
70312;SDS011;57723;51.698;5.344;2023-04-25T02:03:14;0.73;;;0.60;;
70312;SDS011;57723;51.698;5.344;2023-04-25T02:05:40;2.27;;;0.67;;
70312;SDS011;57723;51.698;5.344;2023-04-25T02:08:06;1.70;;;0.80;;
70312;SDS011;57723;51.698;5.344;2023-04-25T02:10:32;1.92;;;0.80;;
70312;SDS011;57723;51.698;5.344;2023-04-25T02:12:57;1.00;;;0.60;;
70312;SDS011;57723;51.698;5.344;2023-04-25T02:15:23;2.10;;;0.70;;
70312;SDS011;57723;51.698;5.344;2023-04-25T02:17:48;0.63;;;0.60;;
70312;SDS011;57723;51.698;5.344;2023-04-25T02:20:13;2.23;;;0.60;;
70312;SDS011;57723;51.698;5.344;2023-04-25T02:22:40;1.08;;;0.70;;
70312;SDS011;57723;51.698;5.344;2023-04-25T02:25:07;1.27;;;0.60;;
70312;SDS011;57723;51.698;5.344;2023-04-25T02:27:32;1.63;;;0.67;;
70312;SDS011;57723;51.698;5.344;2023-04-25T02:29:57;1.20;;;0.53;;
70312;SDS011;57723;51.698;5.344;2023-04-25T02:32:22;1.27;;;0.40;;
70312;SDS011;57723;51.698;5.344;2023-04-25T02:34:48;1.47;;;0.70;;
70312;SDS011;57723;51.698;5.344;2023-04-25T02:37:13;1.33;;;0.67;;
70312;SDS011;57723;51.698;5.344;2023-04-25T02:39:39;1.67;;;0.60;;
70312;SDS011;57723;51.698;5.344;2023-04-25T02:42:04;1.60;;;0.60;;
70312;SDS011;57723;51.698;5.344;2023-04-25T02:44:29;2.20;;;0.70;;
70312;SDS011;57723;51.698;5.344;2023-04-25T02:46:55;0.77;;;0.57;;
70312;SDS011;57723;51.698;5.344;2023-04-25T02:49:20;2.03;;;0.70;;
70312;SDS011;57723;51.698;5.344;2023-04-25T02:51:45;2.00;;;0.83;;
70312;SDS011;57723;51.698;5.344;2023-04-25T02:54:10;1.27;;;0.67;;
70312;SDS011;57723;51.698;5.344;2023-04-25T02:56:36;3.10;;;0.70;;
70312;SDS011;57723;51.698;5.344;2023-04-25T02:59:01;1.70;;;0.60;;
70312;SDS011;57723;51.698;5.344;2023-04-25T03:01:26;1.58;;;0.70;;
70312;SDS011;57723;51.698;5.344;2023-04-25T03:03:52;1.70;;;0.70;;
70312;SDS011;57723;51.698;5.344;2023-04-25T03:06:17;2.10;;;0.87;;
70312;SDS011;57723;51.698;5.344;2023-04-25T03:08:42;1.57;;;0.60;;
70312;SDS011;57723;51.698;5.344;2023-04-25T03:11:08;1.13;;;0.60;;
70312;SDS011;57723;51.698;5.344;2023-04-25T03:13:33;0.90;;;0.50;;
70312;SDS011;57723;51.698;5.344;2023-04-25T03:15:58;2.03;;;0.57;;
70312;SDS011;57723;51.698;5.344;2023-04-25T03:18:23;1.45;;;0.70;;
70312;SDS011;57723;51.698;5.344;2023-04-25T03:20:49;1.45;;;0.68;;
70312;SDS011;57723;51.698;5.344;2023-04-25T03:23:14;1.77;;;0.80;;
70312;SDS011;57723;51.698;5.344;2023-04-25T03:25:39;1.67;;;0.63;;
70312;SDS011;57723;51.698;5.344;2023-04-25T03:28:08;0.73;;;0.60;;
70312;SDS011;57723;51.698;5.344;2023-04-25T03:30:33;0.98;;;0.52;;
70312;SDS011;57723;51.698;5.344;2023-04-25T03:32:58;2.00;;;0.53;;
70312;SDS011;57723;51.698;5.344;2023-04-25T03:35:24;1.13;;;0.60;;
70312;SDS011;57723;51.698;5.344;2023-04-25T03:37:49;0.85;;;0.60;;
70312;SDS011;57723;51.698;5.344;2023-04-25T03:40:14;1.17;;;0.60;;
70312;SDS011;57723;51.698;5.344;2023-04-25T03:42:40;1.73;;;0.60;;
70312;SDS011;57723;51.698;5.344;2023-04-25T03:45:05;1.57;;;0.60;;
70312;SDS011;57723;51.698;5.344;2023-04-25T03:47:31;2.80;;;0.60;;
70312;SDS011;57723;51.698;5.344;2023-04-25T03:49:56;2.80;;;0.63;;
70312;SDS011;57723;51.698;5.344;2023-04-25T03:52:21;3.53;;;0.70;;
70312;SDS011;57723;51.698;5.344;2023-04-25T03:54:46;1.77;;;0.60;;
70312;SDS011;57723;51.698;5.344;2023-04-25T03:57:12;1.50;;;0.70;;
70312;SDS011;57723;51.698;5.344;2023-04-25T03:59:37;2.20;;;0.57;;
70312;SDS011;57723;51.698;5.344;2023-04-25T04:02:02;1.10;;;0.60;;
70312;SDS011;57723;51.698;5.344;2023-04-25T04:04:27;0.80;;;0.50;;
70312;SDS011;57723;51.698;5.344;2023-04-25T04:06:53;1.27;;;0.67;;
70312;SDS011;57723;51.698;5.344;2023-04-25T04:09:18;2.20;;;0.70;;
70312;SDS011;57723;51.698;5.344;2023-04-25T04:11:44;0.95;;;0.60;;
70312;SDS011;57723;51.698;5.344;2023-04-25T04:14:09;2.65;;;0.80;;
70312;SDS011;57723;51.698;5.344;2023-04-25T04:16:35;2.37;;;0.80;;
70312;SDS011;57723;51.698;5.344;2023-04-25T04:19:00;2.10;;;0.60;;
70312;SDS011;57723;51.698;5.344;2023-04-25T04:21:26;3.60;;;0.77;;
70312;SDS011;57723;51.698;5.344;2023-04-25T04:23:52;3.50;;;0.90;;
70312;SDS011;57723;51.698;5.344;2023-04-25T04:26:19;2.20;;;0.70;;
70312;SDS011;57723;51.698;5.344;2023-04-25T04:28:44;3.33;;;0.70;;
70312;SDS011;57723;51.698;5.344;2023-04-25T04:31:10;0.80;;;0.53;;
70312;SDS011;57723;51.698;5.344;2023-04-25T04:33:35;2.13;;;0.82;;
70312;SDS011;57723;51.698;5.344;2023-04-25T04:36:01;3.73;;;0.80;;
70312;SDS011;57723;51.698;5.344;2023-04-25T04:38:28;2.95;;;0.80;;
70312;SDS011;57723;51.698;5.344;2023-04-25T04:40:54;2.88;;;0.90;;
70312;SDS011;57723;51.698;5.344;2023-04-25T04:43:19;1.60;;;0.60;;
70312;SDS011;57723;51.698;5.344;2023-04-25T04:45:44;1.20;;;0.60;;
70312;SDS011;57723;51.698;5.344;2023-04-25T04:48:10;3.23;;;0.80;;
70312;SDS011;57723;51.698;5.344;2023-04-25T04:50:36;1.35;;;0.68;;
70312;SDS011;57723;51.698;5.344;2023-04-25T04:53:02;1.37;;;0.50;;
70312;SDS011;57723;51.698;5.344;2023-04-25T04:55:27;1.50;;;0.90;;
70312;SDS011;57723;51.698;5.344;2023-04-25T04:57:52;2.42;;;0.68;;
70312;SDS011;57723;51.698;5.344;2023-04-25T05:00:18;2.07;;;0.60;;
70312;SDS011;57723;51.698;5.344;2023-04-25T05:02:44;1.40;;;0.50;;
70312;SDS011;57723;51.698;5.344;2023-04-25T05:05:09;0.97;;;0.70;;
70312;SDS011;57723;51.698;5.344;2023-04-25T05:07:35;1.10;;;0.88;;
70312;SDS011;57723;51.698;5.344;2023-04-25T05:10:00;5.20;;;2.93;;
70312;SDS011;57723;51.698;5.344;2023-04-25T05:12:26;11.93;;;10.83;;
70312;SDS011;57723;51.698;5.344;2023-04-25T05:14:51;22.23;;;20.73;;
70312;SDS011;57723;51.698;5.344;2023-04-25T05:17:16;37.92;;;35.83;;
70312;SDS011;57723;51.698;5.344;2023-04-25T05:19:41;48.95;;;46.15;;
70312;SDS011;57723;51.698;5.344;2023-04-25T05:22:07;53.47;;;50.37;;
70312;SDS011;57723;51.698;5.344;2023-04-25T05:24:32;60.57;;;57.17;;
70312;SDS011;57723;51.698;5.344;2023-04-25T05:26:58;67.33;;;63.20;;
70312;SDS011;57723;51.698;5.344;2023-04-25T05:29:23;5.70;;;3.60;;
70312;SDS011;57723;51.698;5.344;2023-04-25T05:31:48;6.38;;;0.70;;
70312;SDS011;57723;51.698;5.344;2023-04-25T05:34:14;4.63;;;0.73;;
70312;SDS011;57723;51.698;5.344;2023-04-25T05:36:39;5.25;;;1.10;;
70312;SDS011;57723;51.698;5.344;2023-04-25T05:39:04;6.03;;;0.80;;
70312;SDS011;57723;51.698;5.344;2023-04-25T05:41:31;2.70;;;0.60;;
70312;SDS011;57723;51.698;5.344;2023-04-25T05:43:56;3.77;;;0.87;;
70312;SDS011;57723;51.698;5.344;2023-04-25T05:46:21;3.63;;;0.90;;
70312;SDS011;57723;51.698;5.344;2023-04-25T05:48:46;17.53;;;1.07;;
70312;SDS011;57723;51.698;5.344;2023-04-25T05:51:11;12.10;;;1.07;;
70312;SDS011;57723;51.698;5.344;2023-04-25T05:53:37;5.30;;;0.90;;
70312;SDS011;57723;51.698;5.344;2023-04-25T05:56:02;4.03;;;0.77;;
70312;SDS011;57723;51.698;5.344;2023-04-25T05:58:27;4.03;;;0.80;;
70312;SDS011;57723;51.698;5.344;2023-04-25T06:00:53;4.20;;;0.60;;
70312;SDS011;57723;51.698;5.344;2023-04-25T06:03:19;3.40;;;0.80;;
70312;SDS011;57723;51.698;5.344;2023-04-25T06:05:45;3.97;;;0.63;;
70312;SDS011;57723;51.698;5.344;2023-04-25T06:08:10;2.77;;;0.90;;
70312;SDS011;57723;51.698;5.344;2023-04-25T06:10:35;2.93;;;0.60;;
70312;SDS011;57723;51.698;5.344;2023-04-25T06:13:01;1.60;;;0.70;;
70312;SDS011;57723;51.698;5.344;2023-04-25T06:15:27;1.33;;;0.60;;
70312;SDS011;57723;51.698;5.344;2023-04-25T06:17:52;2.73;;;0.67;;
70312;SDS011;57723;51.698;5.344;2023-04-25T06:20:17;1.93;;;0.60;;
70312;SDS011;57723;51.698;5.344;2023-04-25T06:22:43;11.20;;;1.43;;
70312;SDS011;57723;51.698;5.344;2023-04-25T06:25:08;2.97;;;0.60;;
70312;SDS011;57723;51.698;5.344;2023-04-25T06:27:34;3.38;;;0.80;;
70312;SDS011;57723;51.698;5.344;2023-04-25T06:29:59;1.55;;;0.88;;
70312;SDS011;57723;51.698;5.344;2023-04-25T06:32:24;4.13;;;0.70;;
70312;SDS011;57723;51.698;5.344;2023-04-25T06:34:52;2.40;;;0.80;;
70312;SDS011;57723;51.698;5.344;2023-04-25T06:37:17;3.03;;;0.80;;
70312;SDS011;57723;51.698;5.344;2023-04-25T06:39:43;1.63;;;0.60;;
70312;SDS011;57723;51.698;5.344;2023-04-25T06:42:08;4.60;;;1.00;;
70312;SDS011;57723;51.698;5.344;2023-04-25T06:44:33;1.83;;;0.70;;
70312;SDS011;57723;51.698;5.344;2023-04-25T06:46:58;2.83;;;0.83;;
70312;SDS011;57723;51.698;5.344;2023-04-25T06:49:24;1.40;;;0.83;;
70312;SDS011;57723;51.698;5.344;2023-04-25T06:51:49;2.30;;;0.70;;
70312;SDS011;57723;51.698;5.344;2023-04-25T06:54:14;3.22;;;0.90;;
70312;SDS011;57723;51.698;5.344;2023-04-25T06:56:40;2.70;;;0.60;;
70312;SDS011;57723;51.698;5.344;2023-04-25T06:59:05;3.10;;;0.65;;
70312;SDS011;57723;51.698;5.344;2023-04-25T07:01:30;1.63;;;0.67;;
70312;SDS011;57723;51.698;5.344;2023-04-25T07:03:55;2.10;;;0.60;;
70312;SDS011;57723;51.698;5.344;2023-04-25T07:06:21;1.03;;;0.60;;
70312;SDS011;57723;51.698;5.344;2023-04-25T07:08:46;2.20;;;0.70;;
70312;SDS011;57723;51.698;5.344;2023-04-25T07:11:12;1.33;;;0.52;;
70312;SDS011;57723;51.698;5.344;2023-04-25T07:13:37;1.30;;;0.60;;
70312;SDS011;57723;51.698;5.344;2023-04-25T07:16:02;1.70;;;1.00;;
70312;SDS011;57723;51.698;5.344;2023-04-25T07:18:28;0.93;;;0.53;;
70312;SDS011;57723;51.698;5.344;2023-04-25T07:20:53;1.33;;;0.77;;
70312;SDS011;57723;51.698;5.344;2023-04-25T07:23:19;1.23;;;0.50;;
70312;SDS011;57723;51.698;5.344;2023-04-25T07:25:44;2.88;;;0.73;;
70312;SDS011;57723;51.698;5.344;2023-04-25T07:28:09;2.10;;;0.80;;
70312;SDS011;57723;51.698;5.344;2023-04-25T07:30:35;1.20;;;0.60;;
70312;SDS011;57723;51.698;5.344;2023-04-25T07:33:00;2.07;;;0.80;;
70312;SDS011;57723;51.698;5.344;2023-04-25T07:35:25;0.77;;;0.50;;
70312;SDS011;57723;51.698;5.344;2023-04-25T07:37:50;1.93;;;0.70;;
70312;SDS011;57723;51.698;5.344;2023-04-25T07:40:16;2.30;;;0.80;;
70312;SDS011;57723;51.698;5.344;2023-04-25T07:42:41;1.77;;;0.63;;
70312;SDS011;57723;51.698;5.344;2023-04-25T07:45:06;0.90;;;0.60;;
70312;SDS011;57723;51.698;5.344;2023-04-25T07:47:32;1.23;;;0.50;;
70312;SDS011;57723;51.698;5.344;2023-04-25T07:49:57;1.53;;;0.60;;
70312;SDS011;57723;51.698;5.344;2023-04-25T07:52:22;1.87;;;0.50;;
70312;SDS011;57723;51.698;5.344;2023-04-25T07:54:48;1.23;;;0.57;;
70312;SDS011;57723;51.698;5.344;2023-04-25T07:57:13;1.40;;;0.70;;
70312;SDS011;57723;51.698;5.344;2023-04-25T07:59:39;1.48;;;0.65;;
70312;SDS011;57723;51.698;5.344;2023-04-25T08:02:04;1.27;;;0.50;;
70312;SDS011;57723;51.698;5.344;2023-04-25T08:04:30;1.43;;;0.80;;
70312;SDS011;57723;51.698;5.344;2023-04-25T08:06:55;1.73;;;0.70;;
70312;SDS011;57723;51.698;5.344;2023-04-25T08:09:20;1.07;;;0.60;;
70312;SDS011;57723;51.698;5.344;2023-04-25T08:11:46;1.73;;;0.80;;
70312;SDS011;57723;51.698;5.344;2023-04-25T08:14:12;1.38;;;0.60;;
70312;SDS011;57723;51.698;5.344;2023-04-25T08:16:37;1.00;;;0.60;;
70312;SDS011;57723;51.698;5.344;2023-04-25T08:19:02;1.38;;;0.80;;
70312;SDS011;57723;51.698;5.344;2023-04-25T08:21:28;2.40;;;0.70;;
70312;SDS011;57723;51.698;5.344;2023-04-25T08:23:56;2.42;;;0.60;;
70312;SDS011;57723;51.698;5.344;2023-04-25T08:26:23;1.65;;;0.57;;
70312;SDS011;57723;51.698;5.344;2023-04-25T08:28:48;1.33;;;0.60;;
70312;SDS011;57723;51.698;5.344;2023-04-25T08:31:13;2.00;;;0.70;;
70312;SDS011;57723;51.698;5.344;2023-04-25T08:33:39;1.65;;;0.60;;
70312;SDS011;57723;51.698;5.344;2023-04-25T08:36:04;1.43;;;0.60;;
70312;SDS011;57723;51.698;5.344;2023-04-25T08:38:30;1.40;;;0.50;;
70312;SDS011;57723;51.698;5.344;2023-04-25T08:40:56;1.42;;;0.75;;
70312;SDS011;57723;51.698;5.344;2023-04-25T08:43:22;0.63;;;0.50;;
70312;SDS011;57723;51.698;5.344;2023-04-25T08:45:48;1.75;;;0.50;;
70312;SDS011;57723;51.698;5.344;2023-04-25T08:48:14;2.97;;;0.53;;
70312;SDS011;57723;51.698;5.344;2023-04-25T08:50:45;1.42;;;0.60;;
70312;SDS011;57723;51.698;5.344;2023-04-25T08:53:10;1.05;;;0.60;;
70312;SDS011;57723;51.698;5.344;2023-04-25T08:55:38;1.63;;;0.50;;
70312;SDS011;57723;51.698;5.344;2023-04-25T08:58:05;0.85;;;0.50;;
70312;SDS011;57723;51.698;5.344;2023-04-25T09:00:31;1.17;;;0.50;;
70312;SDS011;57723;51.698;5.344;2023-04-25T09:02:57;1.20;;;0.40;;
70312;SDS011;57723;51.698;5.344;2023-04-25T09:05:22;1.52;;;0.60;;
70312;SDS011;57723;51.698;5.344;2023-04-25T09:07:48;2.08;;;0.65;;
70312;SDS011;57723;51.698;5.344;2023-04-25T09:10:13;1.33;;;0.90;;
70312;SDS011;57723;51.698;5.344;2023-04-25T09:12:39;1.50;;;0.80;;
70312;SDS011;57723;51.698;5.344;2023-04-25T09:15:05;1.03;;;0.50;;
70312;SDS011;57723;51.698;5.344;2023-04-25T09:17:31;0.95;;;0.50;;
70312;SDS011;57723;51.698;5.344;2023-04-25T09:20:04;1.73;;;0.50;;
70312;SDS011;57723;51.698;5.344;2023-04-25T09:22:30;1.17;;;0.60;;
70312;SDS011;57723;51.698;5.344;2023-04-25T09:24:55;1.10;;;0.57;;
70312;SDS011;57723;51.698;5.344;2023-04-25T09:27:21;2.30;;;0.50;;
70312;SDS011;57723;51.698;5.344;2023-04-25T09:29:55;0.68;;;0.50;;
70312;SDS011;57723;51.698;5.344;2023-04-25T09:32:24;1.42;;;0.68;;
70312;SDS011;57723;51.698;5.344;2023-04-25T09:34:50;1.30;;;0.50;;
70312;SDS011;57723;51.698;5.344;2023-04-25T09:39:45;0.80;;;0.45;;
70312;SDS011;57723;51.698;5.344;2023-04-25T09:42:11;7.20;;;0.88;;
70312;SDS011;57723;51.698;5.344;2023-04-25T09:44:37;1.07;;;0.70;;
70312;SDS011;57723;51.698;5.344;2023-04-25T09:47:09;0.77;;;0.40;;
70312;SDS011;57723;51.698;5.344;2023-04-25T09:49:34;3.08;;;0.43;;
70312;SDS011;57723;51.698;5.344;2023-04-25T09:52:03;0.73;;;0.40;;
70312;SDS011;57723;51.698;5.344;2023-04-25T09:54:28;1.20;;;0.50;;
70312;SDS011;57723;51.698;5.344;2023-04-25T09:56:54;1.60;;;0.50;;
70312;SDS011;57723;51.698;5.344;2023-04-25T09:59:20;1.40;;;0.60;;
70312;SDS011;57723;51.698;5.344;2023-04-25T10:01:46;1.55;;;0.40;;
70312;SDS011;57723;51.698;5.344;2023-04-25T10:04:12;0.68;;;0.50;;
70312;SDS011;57723;51.698;5.344;2023-04-25T10:06:40;0.90;;;0.40;;
70312;SDS011;57723;51.698;5.344;2023-04-25T10:09:07;0.70;;;0.60;;
70312;SDS011;57723;51.698;5.344;2023-04-25T10:11:33;1.00;;;0.40;;
70312;SDS011;57723;51.698;5.344;2023-04-25T10:13:59;1.77;;;0.43;;
70312;SDS011;57723;51.698;5.344;2023-04-25T10:16:25;1.38;;;0.50;;
70312;SDS011;57723;51.698;5.344;2023-04-25T10:18:50;1.00;;;0.70;;
70312;SDS011;57723;51.698;5.344;2023-04-25T10:21:16;0.63;;;0.50;;
70312;SDS011;57723;51.698;5.344;2023-04-25T10:23:42;0.35;;;0.35;;
70312;SDS011;57723;51.698;5.344;2023-04-25T10:26:07;2.00;;;0.50;;
70312;SDS011;57723;51.698;5.344;2023-04-25T10:28:54;0.75;;;0.43;;
70312;SDS011;57723;51.698;5.344;2023-04-25T10:31:20;0.30;;;0.30;;
70312;SDS011;57723;51.698;5.344;2023-04-25T10:33:45;0.40;;;0.40;;
70312;SDS011;57723;51.698;5.344;2023-04-25T10:36:14;0.60;;;0.40;;
70312;SDS011;57723;51.698;5.344;2023-04-25T10:38:44;1.48;;;0.45;;
70312;SDS011;57723;51.698;5.344;2023-04-25T10:41:10;1.35;;;0.40;;
70312;SDS011;57723;51.698;5.344;2023-04-25T10:43:39;1.00;;;0.60;;
70312;SDS011;57723;51.698;5.344;2023-04-25T10:48:50;0.98;;;0.43;;
70312;SDS011;57723;51.698;5.344;2023-04-25T10:51:17;0.65;;;0.50;;
70312;SDS011;57723;51.698;5.344;2023-04-25T10:54:01;1.70;;;0.50;;
70312;SDS011;57723;51.698;5.344;2023-04-25T10:56:31;1.20;;;0.45;;
70312;SDS011;57723;51.698;5.344;2023-04-25T10:59:04;0.93;;;0.40;;
70312;SDS011;57723;51.698;5.344;2023-04-25T11:01:35;0.60;;;0.40;;
70312;SDS011;57723;51.698;5.344;2023-04-25T11:04:00;1.58;;;0.60;;
70312;SDS011;57723;51.698;5.344;2023-04-25T11:06:31;0.60;;;0.60;;
70312;SDS011;57723;51.698;5.344;2023-04-25T11:09:02;1.15;;;0.40;;
70312;SDS011;57723;51.698;5.344;2023-04-25T11:11:28;0.63;;;0.50;;
70312;SDS011;57723;51.698;5.344;2023-04-25T11:13:53;3.42;;;0.40;;
70312;SDS011;57723;51.698;5.344;2023-04-25T11:16:19;0.85;;;0.52;;
70312;SDS011;57723;51.698;5.344;2023-04-25T11:18:44;0.70;;;0.47;;
70312;SDS011;57723;51.698;5.344;2023-04-25T11:21:10;0.80;;;0.40;;
70312;SDS011;57723;51.698;5.344;2023-04-25T11:23:36;0.93;;;0.60;;
70312;SDS011;57723;51.698;5.344;2023-04-25T11:26:02;1.08;;;0.30;;
70312;SDS011;57723;51.698;5.344;2023-04-25T11:28:28;0.80;;;0.47;;
70312;SDS011;57723;51.698;5.344;2023-04-25T11:30:53;1.13;;;0.53;;
70312;SDS011;57723;51.698;5.344;2023-04-25T11:33:22;1.13;;;0.40;;
70312;SDS011;57723;51.698;5.344;2023-04-25T11:35:48;0.95;;;0.50;;
70312;SDS011;57723;51.698;5.344;2023-04-25T11:38:13;0.30;;;0.30;;
70312;SDS011;57723;51.698;5.344;2023-04-25T11:40:38;0.40;;;0.40;;
70312;SDS011;57723;51.698;5.344;2023-04-25T11:43:04;1.30;;;0.50;;
70312;SDS011;57723;51.698;5.344;2023-04-25T11:45:29;0.80;;;0.40;;
70312;SDS011;57723;51.698;5.344;2023-04-25T11:47:56;1.37;;;0.50;;
70312;SDS011;57723;51.698;5.344;2023-04-25T11:50:21;1.47;;;0.50;;
70312;SDS011;57723;51.698;5.344;2023-04-25T11:52:47;0.63;;;0.40;;
70312;SDS011;57723;51.698;5.344;2023-04-25T11:55:13;0.52;;;0.50;;
70312;SDS011;57723;51.698;5.344;2023-04-25T11:57:39;2.55;;;0.50;;
70312;SDS011;57723;51.698;5.344;2023-04-25T12:00:09;0.85;;;0.45;;
70312;SDS011;57723;51.698;5.344;2023-04-25T12:02:36;0.47;;;0.40;;
70312;SDS011;57723;51.698;5.344;2023-04-25T12:05:01;0.97;;;0.40;;
70312;SDS011;57723;51.698;5.344;2023-04-25T12:07:31;0.60;;;0.40;;
70312;SDS011;57723;51.698;5.344;2023-04-25T12:09:56;0.73;;;0.43;;
70312;SDS011;57723;51.698;5.344;2023-04-25T12:12:22;0.93;;;0.40;;
70312;SDS011;57723;51.698;5.344;2023-04-25T12:14:51;0.30;;;0.30;;
70312;SDS011;57723;51.698;5.344;2023-04-25T12:17:17;0.77;;;0.40;;
70312;SDS011;57723;51.698;5.344;2023-04-25T12:19:42;0.60;;;0.30;;
70312;SDS011;57723;51.698;5.344;2023-04-25T12:22:19;1.35;;;0.40;;
70312;SDS011;57723;51.698;5.344;2023-04-25T12:24:45;0.60;;;0.40;;
70312;SDS011;57723;51.698;5.344;2023-04-25T12:27:10;0.70;;;0.40;;
70312;SDS011;57723;51.698;5.344;2023-04-25T12:29:49;1.50;;;0.40;;
70312;SDS011;57723;51.698;5.344;2023-04-25T12:32:15;0.20;;;0.20;;
70312;SDS011;57723;51.698;5.344;2023-04-25T12:34:41;0.63;;;0.40;;
70312;SDS011;57723;51.698;5.344;2023-04-25T12:37:06;0.63;;;0.50;;
70312;SDS011;57723;51.698;5.344;2023-04-25T12:39:32;0.47;;;0.30;;
70312;SDS011;57723;51.698;5.344;2023-04-25T12:41:57;0.60;;;0.33;;
70312;SDS011;57723;51.698;5.344;2023-04-25T12:44:22;0.70;;;0.33;;
70312;SDS011;57723;51.698;5.344;2023-04-25T12:46:48;0.80;;;0.40;;
70312;SDS011;57723;51.698;5.344;2023-04-25T12:49:13;0.63;;;0.40;;
70312;SDS011;57723;51.698;5.344;2023-04-25T12:51:39;0.93;;;0.40;;
70312;SDS011;57723;51.698;5.344;2023-04-25T12:54:04;0.60;;;0.40;;
70312;SDS011;57723;51.698;5.344;2023-04-25T12:56:31;0.90;;;0.50;;
70312;SDS011;57723;51.698;5.344;2023-04-25T12:58:56;0.30;;;0.30;;
70312;SDS011;57723;51.698;5.344;2023-04-25T13:01:22;1.00;;;0.40;;
70312;SDS011;57723;51.698;5.344;2023-04-25T13:03:47;0.63;;;0.40;;
70312;SDS011;57723;51.698;5.344;2023-04-25T13:06:13;0.60;;;0.40;;
70312;SDS011;57723;51.698;5.344;2023-04-25T13:08:39;1.92;;;0.43;;
70312;SDS011;57723;51.698;5.344;2023-04-25T13:11:06;1.00;;;0.40;;
70312;SDS011;57723;51.698;5.344;2023-04-25T13:13:31;1.27;;;0.40;;
70312;SDS011;57723;51.698;5.344;2023-04-25T13:15:57;1.02;;;0.50;;
70312;SDS011;57723;51.698;5.344;2023-04-25T13:18:22;2.27;;;0.50;;
70312;SDS011;57723;51.698;5.344;2023-04-25T13:20:52;0.30;;;0.30;;
70312;SDS011;57723;51.698;5.344;2023-04-25T13:23:17;0.73;;;0.40;;
70312;SDS011;57723;51.698;5.344;2023-04-25T13:25:42;1.30;;;0.50;;
70312;SDS011;57723;51.698;5.344;2023-04-25T13:28:07;1.70;;;0.40;;
70312;SDS011;57723;51.698;5.344;2023-04-25T13:30:33;2.30;;;0.43;;
70312;SDS011;57723;51.698;5.344;2023-04-25T13:32:58;0.53;;;0.40;;
70312;SDS011;57723;51.698;5.344;2023-04-25T13:35:28;1.60;;;0.40;;
70312;SDS011;57723;51.698;5.344;2023-04-25T13:37:53;0.75;;;0.50;;
70312;SDS011;57723;51.698;5.344;2023-04-25T13:40:18;1.10;;;0.30;;
70312;SDS011;57723;51.698;5.344;2023-04-25T13:42:44;0.40;;;0.40;;
70312;SDS011;57723;51.698;5.344;2023-04-25T13:45:10;0.30;;;0.30;;
70312;SDS011;57723;51.698;5.344;2023-04-25T13:47:36;0.73;;;0.43;;
70312;SDS011;57723;51.698;5.344;2023-04-25T13:50:01;0.70;;;0.40;;
70312;SDS011;57723;51.698;5.344;2023-04-25T13:52:28;1.13;;;0.50;;
70312;SDS011;57723;51.698;5.344;2023-04-25T13:54:54;1.23;;;0.40;;
70312;SDS011;57723;51.698;5.344;2023-04-25T13:57:19;1.97;;;0.40;;
70312;SDS011;57723;51.698;5.344;2023-04-25T13:59:44;1.60;;;0.50;;
70312;SDS011;57723;51.698;5.344;2023-04-25T14:02:11;0.50;;;0.40;;
70312;SDS011;57723;51.698;5.344;2023-04-25T14:04:36;0.85;;;0.73;;
70312;SDS011;57723;51.698;5.344;2023-04-25T14:07:02;0.73;;;0.60;;
70312;SDS011;57723;51.698;5.344;2023-04-25T14:09:27;1.00;;;0.50;;
70312;SDS011;57723;51.698;5.344;2023-04-25T14:11:53;0.83;;;0.50;;
70312;SDS011;57723;51.698;5.344;2023-04-25T14:14:19;1.23;;;0.60;;
70312;SDS011;57723;51.698;5.344;2023-04-25T14:16:44;0.70;;;0.50;;
70312;SDS011;57723;51.698;5.344;2023-04-25T14:19:09;1.23;;;0.60;;
70312;SDS011;57723;51.698;5.344;2023-04-25T14:21:34;2.07;;;0.90;;
70312;SDS011;57723;51.698;5.344;2023-04-25T14:24:00;1.40;;;0.80;;
70312;SDS011;57723;51.698;5.344;2023-04-25T14:26:25;1.13;;;0.52;;
70312;SDS011;57723;51.698;5.344;2023-04-25T14:28:51;0.90;;;0.40;;
70312;SDS011;57723;51.698;5.344;2023-04-25T14:31:16;1.23;;;0.50;;
70312;SDS011;57723;51.698;5.344;2023-04-25T14:33:42;1.70;;;0.40;;
70312;SDS011;57723;51.698;5.344;2023-04-25T14:36:08;1.20;;;0.63;;
70312;SDS011;57723;51.698;5.344;2023-04-25T14:38:33;0.47;;;0.40;;
70312;SDS011;57723;51.698;5.344;2023-04-25T14:40:58;0.70;;;0.40;;
70312;SDS011;57723;51.698;5.344;2023-04-25T14:43:23;0.60;;;0.40;;
70312;SDS011;57723;51.698;5.344;2023-04-25T14:45:49;1.10;;;0.50;;